createdAt,value
2018-07-19T00:03:13.089Z,24.20
2018-07-19T00:05:40.076Z,24.60
2018-07-19T00:08:07.110Z,24.30
2018-07-19T00:10:34.509Z,24.70
2018-07-19T00:13:01.498Z,25.10
2018-07-19T00:15:28.582Z,24.80
2018-07-19T00:17:55.572Z,25.10
2018-07-19T00:20:22.559Z,24.60
2018-07-19T00:22:49.589Z,24.50
2018-07-19T00:25:16.584Z,24.80
2018-07-19T00:27:43.573Z,24.60
2018-07-19T00:30:10.631Z,24.10
2018-07-19T00:35:16.135Z,25.90
2018-07-19T00:37:43.122Z,27.40
2018-07-19T00:40:10.108Z,27.40
2018-07-19T00:42:37.170Z,27.90
2018-07-19T00:45:04.159Z,28.20
2018-07-19T00:47:31.153Z,28.70
2018-07-19T00:49:58.191Z,27.90
2018-07-19T00:52:25.174Z,27.80
2018-07-19T00:54:52.863Z,28.20
2018-07-19T00:57:19.921Z,27.70
2018-07-19T00:59:46.990Z,27.60
2018-07-19T01:02:13.948Z,27.80
2018-07-19T01:04:41.436Z,28.10
2018-07-19T01:07:08.419Z,28.50
2018-07-19T01:09:35.414Z,29.90
2018-07-19T01:12:02.447Z,28.40
2018-07-19T01:14:30.374Z,28.30
2018-07-19T01:16:57.369Z,28.00
2018-07-19T01:19:24.418Z,29.60
2018-07-19T01:21:51.412Z,29.40
2018-07-19T01:24:18.399Z,29.90
2018-07-19T01:31:39.618Z,32.50
2018-07-19T01:34:06.655Z,34.40
2018-07-19T01:36:33.644Z,35.80
2018-07-19T01:39:00.633Z,34.30
2018-07-19T01:41:27.662Z,33.80
2018-07-19T01:43:55.463Z,32.20
2018-07-19T01:46:22.413Z,32.50
2018-07-19T01:48:50.151Z,34.30
2018-07-19T01:51:17.137Z,38.80
2018-07-19T01:56:24.653Z,46.20
2018-07-19T01:58:51.630Z,45.50
2018-07-19T02:01:18.621Z,42.10
2018-07-19T02:03:45.674Z,41.50
2018-07-19T02:08:39.733Z,42.70
2018-07-19T02:11:06.764Z,44.90
2018-07-19T02:13:34.704Z,47.10
2018-07-19T02:16:01.690Z,46.30
2018-07-19T02:18:28.758Z,49.40
2018-07-19T02:20:55.743Z,53.10
2018-07-19T02:23:22.728Z,51.20
2018-07-19T02:25:49.790Z,49.70
2018-07-19T02:28:16.775Z,48.00
2018-07-19T02:30:44.335Z,45.70
2018-07-19T02:33:11.395Z,47.50
2018-07-19T02:35:38.381Z,45.60
2018-07-19T02:38:05.363Z,44.00
2018-07-19T02:40:32.392Z,43.30
2018-07-19T02:42:59.415Z,43.20
2018-07-19T02:45:26.400Z,42.00
2018-07-19T02:47:53.464Z,42.40
2018-07-19T02:50:20.460Z,44.40
2018-07-19T02:52:47.446Z,44.70
2018-07-19T02:55:14.487Z,46.30
2018-07-19T02:57:41.464Z,47.00
2018-07-19T03:00:08.452Z,47.20
2018-07-19T03:02:35.520Z,53.20
2018-07-19T03:05:02.544Z,48.00
2018-07-19T03:09:56.657Z,51.50
2018-07-19T03:12:23.648Z,52.10
2018-07-19T03:17:29.163Z,50.70
2018-07-19T03:19:56.151Z,50.20
2018-07-19T03:22:23.140Z,49.20
2018-07-19T03:24:50.195Z,48.20
2018-07-19T03:27:17.195Z,49.00
2018-07-19T03:29:44.174Z,50.00
2018-07-19T03:32:11.215Z,50.60
2018-07-19T03:34:38.192Z,51.90
2018-07-19T03:37:06.153Z,52.20
2018-07-19T03:39:33.180Z,50.80
2018-07-19T03:42:00.167Z,51.20
2018-07-19T03:44:27.161Z,52.40
2018-07-19T03:46:54.201Z,52.70
2018-07-19T03:51:48.272Z,53.90
2018-07-19T03:54:15.325Z,54.20
2018-07-19T03:56:42.313Z,54.70
2018-07-19T03:59:09.300Z,54.50
2018-07-19T04:01:36.328Z,52.00
2018-07-19T04:04:03.318Z,50.90
2018-07-19T04:08:57.432Z,52.30
2018-07-19T04:11:24.421Z,55.20
2018-07-19T04:13:51.407Z,56.30
2018-07-19T04:16:18.463Z,59.10
2018-07-19T04:21:23.957Z,62.90
2018-07-19T04:23:50.941Z,61.90
2018-07-19T04:28:45.041Z,65.90
2018-07-19T04:31:12.035Z,64.40
2018-07-19T04:33:39.015Z,68.20
2018-07-19T04:36:06.590Z,69.80
2018-07-19T04:38:34.438Z,67.50
2018-07-19T04:41:01.423Z,69.30
2018-07-19T04:43:28.452Z,68.70
2018-07-19T04:45:55.449Z,66.70
2018-07-19T04:48:22.509Z,64.60
2018-07-19T04:55:43.677Z,59.10
2018-07-19T04:58:11.357Z,65.50
2018-07-19T05:00:38.343Z,68.20
2018-07-19T05:03:05.340Z,69.30
2018-07-19T05:05:33.121Z,72.40
2018-07-19T05:08:00.114Z,69.90
2018-07-19T05:10:27.099Z,67.50
2018-07-19T05:12:54.164Z,70.10
2018-07-19T05:15:21.169Z,73.40
2018-07-19T05:17:48.157Z,68.80
2018-07-19T05:20:15.217Z,68.90
2018-07-19T05:22:42.213Z,68.10
2018-07-19T05:25:09.201Z,69.00
2018-07-19T05:27:36.236Z,67.80
2018-07-19T05:35:08.851Z,65.90
2018-07-19T05:37:35.843Z,58.70
2018-07-19T05:42:30.834Z,50.40
2018-07-19T05:44:57.797Z,52.90
2018-07-19T05:47:24.867Z,51.50
2018-07-19T05:49:51.857Z,55.20
2018-07-19T05:52:18.893Z,57.50
2018-07-19T05:54:45.899Z,57.80
2018-07-19T05:57:12.894Z,58.50
2018-07-19T05:59:39.889Z,52.10
2018-07-19T06:02:06.943Z,50.20
2018-07-19T06:04:33.945Z,45.20
2018-07-19T06:07:00.931Z,45.90
2018-07-19T06:09:27.968Z,47.40
2018-07-19T06:11:54.960Z,51.30
2018-07-19T06:14:21.975Z,51.50
2018-07-19T06:16:49.031Z,44.40
2018-07-19T06:19:16.975Z,46.50
2018-07-19T06:21:43.967Z,43.80
2018-07-19T06:24:11.657Z,47.00
2018-07-19T06:29:05.726Z,43.20
2018-07-19T06:31:32.795Z,41.20
2018-07-19T06:33:59.775Z,39.90
2018-07-19T06:36:26.763Z,35.90
2018-07-19T06:38:53.838Z,31.10
2018-07-19T06:41:20.830Z,32.60
2018-07-19T06:43:47.822Z,27.60
2018-07-19T06:46:14.846Z,25.10
2018-07-19T06:48:42.216Z,23.20
2018-07-19T06:56:14.849Z,18.90
2018-07-19T06:58:41.885Z,20.00
2018-07-19T07:03:36.850Z,19.20
2018-07-19T07:06:04.009Z,19.20
2018-07-19T07:08:31.014Z,18.40
2018-07-19T07:10:58.009Z,17.80
2018-07-19T07:13:25.046Z,17.00
2018-07-19T07:15:52.050Z,17.00
2018-07-19T07:18:19.060Z,16.30
2018-07-19T07:25:40.710Z,15.50
2018-07-19T07:28:07.743Z,14.90
2018-07-19T07:30:34.737Z,15.70
2018-07-19T07:33:01.739Z,12.90
2018-07-19T07:35:28.828Z,14.30
2018-07-19T07:37:55.813Z,12.10
2018-07-19T07:40:22.806Z,13.70
2018-07-19T07:42:49.870Z,13.10
2018-07-19T07:45:16.871Z,13.00
2018-07-19T07:47:43.856Z,12.60
2018-07-19T07:50:10.891Z,12.40
2018-07-19T07:52:37.896Z,12.90
2018-07-19T07:55:04.894Z,11.00
2018-07-19T07:57:31.971Z,13.40
2018-07-19T07:59:58.967Z,11.20
2018-07-19T08:02:26.776Z,13.90
2018-07-19T08:04:53.809Z,13.10
2018-07-19T08:07:20.880Z,10.40
2018-07-19T08:09:47.884Z,11.60
2018-07-19T08:12:14.947Z,11.30
2018-07-19T08:14:41.954Z,11.90
2018-07-19T08:22:15.228Z,8.20
2018-07-19T08:24:43.234Z,9.80
2018-07-19T08:27:10.245Z,9.70
2018-07-19T08:29:37.550Z,9.70
2018-07-19T08:32:04.595Z,9.70
2018-07-19T08:34:31.612Z,9.20
2018-07-19T08:36:58.604Z,8.40
2018-07-19T08:39:25.641Z,9.20
2018-07-19T08:41:52.674Z,9.20
2018-07-19T08:44:20.455Z,8.90
2018-07-19T08:46:47.535Z,9.30
2018-07-19T08:49:15.489Z,8.40
2018-07-19T08:51:42.553Z,8.20
2018-07-19T08:54:10.414Z,7.80
2018-07-19T08:56:37.424Z,6.70
2018-07-19T08:59:04.419Z,7.00
2018-07-19T09:01:31.456Z,7.30
2018-07-19T09:03:58.443Z,6.80
2018-07-19T09:06:26.388Z,6.40
2018-07-19T09:08:53.454Z,5.80
2018-07-19T09:11:20.455Z,6.50
2018-07-19T09:13:47.445Z,5.70
2018-07-19T09:16:14.479Z,7.20
2018-07-19T09:21:08.558Z,5.60
2018-07-19T09:23:35.596Z,4.90
2018-07-19T09:26:02.586Z,4.90
2018-07-19T09:28:29.582Z,4.50
2018-07-19T09:30:56.656Z,4.20
2018-07-19T09:33:24.197Z,4.30
2018-07-19T09:35:50.985Z,3.80
2018-07-19T09:38:18.080Z,3.40
2018-07-19T09:40:45.017Z,4.40
2018-07-19T09:43:12.955Z,3.40
2018-07-19T09:50:46.056Z,4.40
2018-07-19T09:53:13.159Z,2.40
2018-07-19T09:55:40.165Z,3.10
2018-07-19T09:58:07.227Z,4.70
2018-07-19T10:00:35.043Z,2.70
2018-07-19T10:03:02.042Z,2.70
2018-07-19T10:05:29.090Z,2.80
2018-07-19T10:07:56.091Z,3.50
2018-07-19T10:10:23.076Z,4.00
2018-07-19T10:12:50.121Z,2.10
2018-07-19T10:15:17.118Z,3.50
2018-07-19T10:17:44.107Z,2.50
2018-07-19T10:20:11.145Z,2.10
2018-07-19T10:22:38.185Z,1.40
2018-07-19T10:25:05.198Z,1.00
2018-07-19T10:27:32.758Z,1.00
2018-07-19T10:29:59.753Z,1.10
2018-07-19T10:32:26.811Z,1.20
2018-07-19T10:34:53.782Z,1.00
2018-07-19T10:37:20.795Z,1.00
2018-07-19T10:39:47.797Z,1.00
2018-07-19T10:42:14.845Z,1.00
2018-07-19T10:44:41.849Z,1.00
2018-07-19T10:47:08.841Z,1.00
2018-07-19T10:49:38.618Z,1.00
2018-07-19T10:52:05.624Z,1.00
2018-07-19T10:54:32.630Z,1.00
2018-07-19T10:56:59.711Z,1.00
2018-07-19T10:59:27.472Z,1.00
2018-07-19T11:01:54.475Z,1.00
2018-07-19T11:04:22.334Z,1.00
2018-07-19T11:06:51.268Z,1.00
2018-07-19T11:11:56.786Z,1.00
2018-07-19T11:14:23.785Z,1.00
2018-07-19T11:16:50.784Z,1.00
2018-07-19T11:19:17.854Z,1.00
2018-07-19T11:21:44.860Z,1.00
2018-07-19T11:24:12.628Z,1.00
2018-07-19T11:26:39.665Z,1.00
2018-07-19T11:29:06.673Z,1.00
2018-07-19T11:31:33.672Z,1.00
2018-07-19T11:34:00.725Z,1.00
2018-07-19T11:36:27.726Z,1.00
2018-07-19T11:38:54.726Z,1.00
2018-07-19T11:41:21.775Z,1.00
2018-07-19T11:43:48.815Z,1.00
2018-07-19T11:46:15.816Z,1.00
2018-07-19T11:48:42.862Z,1.00
2018-07-19T11:51:11.221Z,1.00
2018-07-19T11:53:37.384Z,1.00
2018-07-19T11:56:06.294Z,1.00
2018-07-19T11:58:32.756Z,1.00
2018-07-19T12:00:59.746Z,1.00
2018-07-19T12:03:27.728Z,1.00
2018-07-19T12:05:54.726Z,1.00
2018-07-19T12:08:21.714Z,1.00
2018-07-19T12:10:48.757Z,1.00
2018-07-19T12:13:15.742Z,1.00
2018-07-19T12:15:42.740Z,1.00
2018-07-19T12:18:10.666Z,1.00
2018-07-19T12:20:39.879Z,1.00
2018-07-19T12:23:06.882Z,1.00
2018-07-19T12:25:33.927Z,1.00
2018-07-19T12:28:01.618Z,1.00
2018-07-19T12:30:29.558Z,1.00
2018-07-19T12:32:56.636Z,1.00
2018-07-19T12:38:02.189Z,1.00
2018-07-19T12:40:29.195Z,1.00
2018-07-19T12:42:56.193Z,1.00
2018-07-19T12:45:23.266Z,1.00
2018-07-19T12:47:50.260Z,1.00
2018-07-19T12:50:17.246Z,1.00
2018-07-19T12:55:12.258Z,1.00
2018-07-19T12:57:39.255Z,1.00
2018-07-19T13:00:07.871Z,1.00
2018-07-19T13:02:34.880Z,1.00
2018-07-19T13:05:02.326Z,1.00
2018-07-19T13:07:29.521Z,1.00
2018-07-19T13:12:29.427Z,1.00
2018-07-19T13:14:56.422Z,1.00
2018-07-19T13:17:23.415Z,1.00
2018-07-19T13:19:50.498Z,1.00
2018-07-19T13:22:17.486Z,1.00
2018-07-19T13:24:44.493Z,1.00
2018-07-19T13:27:11.529Z,1.00
2018-07-19T13:32:05.622Z,1.00
2018-07-19T13:34:32.686Z,1.00
2018-07-19T13:36:59.668Z,1.00
2018-07-19T13:39:26.668Z,1.00
2018-07-19T13:41:53.724Z,1.00
2018-07-19T13:44:20.718Z,1.00
2018-07-19T13:46:48.659Z,1.00
2018-07-19T13:49:15.726Z,1.00
2018-07-19T13:51:43.019Z,1.00
2018-07-19T13:56:37.140Z,1.00
2018-07-19T14:01:43.605Z,1.00
2018-07-19T14:04:10.602Z,1.00
2018-07-19T14:06:37.600Z,1.00
2018-07-19T14:09:04.642Z,1.00
2018-07-19T14:11:31.634Z,1.00
2018-07-19T14:13:58.632Z,1.00
2018-07-19T14:16:25.686Z,1.00
2018-07-19T14:18:52.701Z,1.00
2018-07-19T14:21:19.675Z,1.00
2018-07-19T14:23:46.715Z,1.00
2018-07-19T14:26:13.721Z,1.00
2018-07-19T14:28:40.724Z,1.00
2018-07-19T14:31:07.794Z,1.00
2018-07-19T14:33:34.801Z,1.00
2018-07-19T14:36:01.802Z,1.00
2018-07-19T14:38:29.674Z,1.00
2018-07-19T14:40:56.757Z,1.00
2018-07-19T14:43:23.761Z,1.00
2018-07-19T14:45:50.830Z,1.00
2018-07-19T14:48:17.826Z,1.00
2018-07-19T14:50:44.818Z,1.00
2018-07-19T14:53:11.849Z,1.00
2018-07-19T14:55:38.846Z,1.00
2018-07-19T14:58:05.930Z,1.00
2018-07-19T15:00:32.973Z,1.00
2018-07-19T15:02:59.980Z,1.00
2018-07-19T15:05:28.507Z,1.00
2018-07-19T15:07:55.173Z,1.20
2018-07-19T15:10:22.163Z,1.50
2018-07-19T15:12:49.148Z,1.30
2018-07-19T15:15:16.244Z,1.50
2018-07-19T15:20:10.682Z,1.00
2018-07-19T15:22:37.729Z,1.00
2018-07-19T15:27:45.266Z,1.00
2018-07-19T15:30:13.218Z,1.00
2018-07-19T15:35:07.332Z,1.60
2018-07-19T15:37:34.338Z,1.00
2018-07-19T15:40:01.305Z,1.00
2018-07-19T15:42:28.369Z,1.80
2018-07-19T15:44:55.367Z,1.20
2018-07-19T15:47:22.340Z,2.50
2018-07-19T15:49:50.141Z,2.90
2018-07-19T15:52:17.124Z,2.90
2018-07-19T15:54:44.148Z,3.20
2018-07-19T15:57:11.220Z,3.00
2018-07-19T16:02:06.055Z,3.50
2018-07-19T16:04:33.082Z,3.50
2018-07-19T16:07:00.078Z,4.50
2018-07-19T16:09:27.889Z,3.40
2018-07-19T16:16:49.919Z,4.10
2018-07-19T16:19:17.819Z,4.00
2018-07-19T16:21:44.835Z,4.30
2018-07-19T16:24:12.909Z,4.60
2018-07-19T16:26:40.932Z,4.60
2018-07-19T16:29:08.262Z,4.80
2018-07-19T16:31:36.822Z,4.70
2018-07-19T16:34:06.452Z,5.30
2018-07-19T16:36:33.783Z,5.10
2018-07-19T16:42:18.630Z,6.10
2018-07-19T16:44:46.352Z,5.30
2018-07-19T16:47:13.353Z,5.40
2018-07-19T16:49:40.415Z,5.30
2018-07-19T16:52:07.414Z,5.40
2018-07-19T16:54:34.413Z,5.40
2018-07-19T16:57:01.482Z,5.50
2018-07-19T16:59:28.481Z,5.30
2018-07-19T17:01:55.490Z,5.30
2018-07-19T17:04:22.589Z,5.10
2018-07-19T17:06:50.362Z,5.30
2018-07-19T17:11:44.492Z,5.40
2018-07-19T17:14:12.367Z,5.70
2018-07-19T17:16:39.356Z,6.10
2018-07-19T17:19:06.392Z,5.90
2018-07-19T17:21:33.377Z,5.80
2018-07-19T17:24:00.361Z,6.10
2018-07-19T17:26:28.260Z,6.40
2018-07-19T17:28:55.270Z,6.50
2018-07-19T17:31:22.247Z,6.70
2018-07-19T17:33:49.317Z,7.00
2018-07-19T17:36:16.318Z,7.20
2018-07-19T17:38:43.316Z,7.30
2018-07-19T17:41:11.195Z,7.50
2018-07-19T17:43:38.183Z,7.30
2018-07-19T17:46:05.167Z,8.00
2018-07-19T17:48:32.230Z,8.50
2018-07-19T17:50:59.224Z,8.40
2018-07-19T17:53:26.243Z,8.10
2018-07-19T17:55:53.327Z,8.10
2018-07-19T18:00:48.156Z,8.30
2018-07-19T18:03:15.187Z,9.10
2018-07-19T18:08:22.713Z,10.50
2018-07-19T18:10:49.729Z,9.00
2018-07-19T18:13:16.708Z,10.10
2018-07-19T18:15:43.791Z,9.80
2018-07-19T18:18:10.792Z,10.50
2018-07-19T18:20:37.790Z,10.10
2018-07-19T18:23:04.867Z,10.10
2018-07-19T18:27:58.940Z,11.20
2018-07-19T18:30:25.984Z,10.70
2018-07-19T18:32:53.192Z,10.70
2018-07-19T18:35:20.184Z,11.50
2018-07-19T18:37:47.263Z,11.40
2018-07-19T18:40:14.309Z,11.40
2018-07-19T18:42:41.250Z,11.90
2018-07-19T18:45:08.281Z,11.70
2018-07-19T18:47:35.258Z,11.50
2018-07-19T18:52:42.875Z,11.30
2018-07-19T18:55:09.863Z,12.50
2018-07-19T18:57:36.882Z,12.80
2018-07-19T19:00:03.917Z,12.50
2018-07-19T19:02:30.931Z,12.10
2018-07-19T19:04:57.927Z,11.60
2018-07-19T19:07:25.012Z,11.80
2018-07-19T19:09:51.998Z,12.20
2018-07-19T19:12:18.997Z,12.30
2018-07-19T19:14:46.871Z,11.80
2018-07-19T19:17:14.125Z,11.60
2018-07-19T19:22:08.415Z,11.80
2018-07-19T19:24:35.540Z,11.60
2018-07-19T19:27:02.473Z,11.60
2018-07-19T19:29:29.545Z,11.50
2018-07-19T19:31:56.752Z,11.20
2018-07-19T19:36:51.304Z,10.70
2018-07-19T19:39:18.218Z,10.40
2018-07-19T19:41:45.401Z,10.00
2018-07-19T19:44:13.488Z,10.70
2018-07-19T19:46:40.896Z,11.00
2018-07-19T19:49:07.933Z,11.10
2018-07-19T19:51:34.923Z,11.00
2018-07-19T19:54:02.516Z,11.50
2018-07-19T19:56:29.558Z,11.80
2018-07-19T19:58:56.661Z,11.20
2018-07-19T20:01:23.701Z,11.20
2018-07-19T20:08:58.944Z,11.50
2018-07-19T20:11:26.015Z,12.10
2018-07-19T20:13:55.395Z,11.50
2018-07-19T20:16:22.312Z,12.30
2018-07-19T20:18:49.609Z,11.60
2018-07-19T20:21:16.653Z,11.90
2018-07-19T20:23:43.695Z,11.40
2018-07-19T20:28:38.253Z,11.40
2018-07-19T20:31:05.524Z,12.80
2018-07-19T20:33:32.547Z,12.00
2018-07-19T20:35:59.549Z,12.20
2018-07-19T20:38:26.700Z,12.30
2018-07-19T20:40:53.794Z,12.90
2018-07-19T20:43:21.179Z,12.30
2018-07-19T20:45:48.167Z,12.70
2018-07-19T20:48:15.194Z,12.60
2018-07-19T20:50:42.192Z,12.70
2018-07-19T20:53:09.175Z,12.90
2018-07-19T20:55:36.264Z,12.60
2018-07-19T20:58:03.213Z,12.80
2018-07-19T21:00:30.228Z,13.00
2018-07-19T21:02:57.290Z,13.80
2018-07-19T21:05:27.585Z,13.50
2018-07-19T21:07:54.576Z,13.40
2018-07-19T21:10:21.704Z,14.00
2018-07-19T21:12:48.702Z,14.00
2018-07-19T21:17:54.208Z,14.30
2018-07-19T21:20:21.207Z,14.00
2018-07-19T21:22:50.163Z,14.10
2018-07-19T21:25:15.221Z,14.20
2018-07-19T21:27:42.221Z,14.00
2018-07-19T21:30:09.205Z,14.60
2018-07-19T21:32:36.229Z,15.00
2018-07-19T21:35:05.089Z,14.80
2018-07-19T21:37:30.217Z,14.30
2018-07-19T21:39:57.254Z,14.70
2018-07-19T21:42:28.383Z,15.50
2018-07-19T21:44:55.418Z,15.30
2018-07-19T21:47:22.897Z,14.90
2018-07-19T21:49:49.889Z,15.10
2018-07-19T21:52:17.093Z,15.30
2018-07-19T21:54:44.122Z,15.30
2018-07-19T21:57:14.064Z,15.40
2018-07-19T22:02:08.255Z,15.40
2018-07-19T22:04:35.726Z,15.60
2018-07-19T22:07:02.904Z,16.40
2018-07-19T22:09:29.968Z,16.40
2018-07-19T22:11:56.935Z,16.60
2018-07-19T22:14:23.918Z,16.40
2018-07-19T22:16:50.976Z,16.40
2018-07-19T22:21:56.475Z,16.90
2018-07-19T22:24:23.465Z,16.60
2018-07-19T22:26:50.452Z,17.10
2018-07-19T22:29:20.948Z,17.20
2018-07-19T22:31:47.962Z,17.70
2018-07-19T22:39:09.596Z,17.50
2018-07-19T22:41:36.593Z,17.40
2018-07-19T22:44:03.637Z,17.50
2018-07-19T22:46:30.626Z,17.80
2018-07-19T22:48:57.605Z,17.90
2018-07-19T22:51:24.654Z,17.90
2018-07-19T22:53:55.170Z,17.60
2018-07-19T22:56:22.156Z,17.60
2018-07-19T22:58:49.190Z,18.90
2018-07-19T23:01:16.173Z,18.90
2018-07-19T23:03:43.153Z,18.80
2018-07-19T23:06:10.213Z,19.10
2018-07-19T23:08:38.135Z,19.30
2018-07-19T23:11:05.118Z,19.40
2018-07-19T23:18:27.828Z,19.60
2018-07-19T23:20:54.892Z,19.50
2018-07-19T23:23:21.881Z,19.10
2018-07-19T23:28:29.417Z,20.40
2018-07-19T23:30:56.393Z,21.30
2018-07-19T23:33:23.572Z,21.20
2018-07-19T23:38:17.690Z,21.00
2018-07-19T23:40:44.664Z,21.00
2018-07-19T23:43:11.720Z,21.10
2018-07-19T23:45:38.700Z,21.30
2018-07-19T23:50:32.987Z,21.80
2018-07-19T23:52:59.971Z,21.80
2018-07-19T23:55:27.807Z,22.30
2018-07-19T23:57:54.840Z,22.10
